sensor_id;sensor_type;location;lat;lon;timestamp;P1;durP1;ratioP1;P2;durP2;ratioP2
26191;SDS011;13935;55.672;37.764;2023-03-23T00:02:09;10.43;;;5.22;;
26191;SDS011;13935;55.672;37.764;2023-03-23T00:03:57;9.35;;;4.80;;
26191;SDS011;13935;55.672;37.764;2023-03-23T00:09:23;9.65;;;4.90;;
26191;SDS011;13935;55.672;37.764;2023-03-23T00:18:58;8.18;;;4.68;;
26191;SDS011;13935;55.672;37.764;2023-03-23T00:21:42;8.60;;;4.85;;
26191;SDS011;13935;55.672;37.764;2023-03-23T00:27:27;8.95;;;4.85;;
26191;SDS011;13935;55.672;37.764;2023-03-23T00:33:12;7.55;;;4.53;;
26191;SDS011;13935;55.672;37.764;2023-03-23T00:35:19;9.35;;;4.97;;
26191;SDS011;13935;55.672;37.764;2023-03-23T00:40:37;11.13;;;5.13;;
26191;SDS011;13935;55.672;37.764;2023-03-23T00:42:50;10.82;;;4.80;;
26191;SDS011;13935;55.672;37.764;2023-03-23T00:45:31;11.00;;;5.50;;
26191;SDS011;13935;55.672;37.764;2023-03-23T00:57:23;8.77;;;5.25;;
26191;SDS011;13935;55.672;37.764;2023-03-23T01:08:15;10.88;;;5.72;;
26191;SDS011;13935;55.672;37.764;2023-03-23T01:11:04;8.45;;;5.03;;
26191;SDS011;13935;55.672;37.764;2023-03-23T01:18:14;10.98;;;5.75;;
26191;SDS011;13935;55.672;37.764;2023-03-23T01:21:09;7.32;;;4.60;;
26191;SDS011;13935;55.672;37.764;2023-03-23T01:26:13;8.45;;;4.80;;
26191;SDS011;13935;55.672;37.764;2023-03-23T01:28:34;8.18;;;5.00;;
26191;SDS011;13935;55.672;37.764;2023-03-23T01:30:50;8.63;;;5.47;;
26191;SDS011;13935;55.672;37.764;2023-03-23T01:35:40;8.70;;;4.93;;
26191;SDS011;13935;55.672;37.764;2023-03-23T01:37:13;8.40;;;5.07;;
26191;SDS011;13935;55.672;37.764;2023-03-23T01:39:23;9.00;;;5.55;;
26191;SDS011;13935;55.672;37.764;2023-03-23T01:41:24;9.55;;;5.63;;
26191;SDS011;13935;55.672;37.764;2023-03-23T01:47:13;9.30;;;4.68;;
26191;SDS011;13935;55.672;37.764;2023-03-23T01:49:40;8.40;;;5.28;;
26191;SDS011;13935;55.672;37.764;2023-03-23T01:51:59;9.35;;;4.97;;
26191;SDS011;13935;55.672;37.764;2023-03-23T01:54:01;8.45;;;4.53;;
26191;SDS011;13935;55.672;37.764;2023-03-23T01:55:57;6.50;;;3.95;;
26191;SDS011;13935;55.672;37.764;2023-03-23T02:01:27;7.78;;;5.00;;
26191;SDS011;13935;55.672;37.764;2023-03-23T02:03:35;6.97;;;4.20;;
26191;SDS011;13935;55.672;37.764;2023-03-23T02:06:23;8.55;;;4.60;;
26191;SDS011;13935;55.672;37.764;2023-03-23T02:09:13;10.85;;;4.38;;
26191;SDS011;13935;55.672;37.764;2023-03-23T02:20:23;7.20;;;4.45;;
26191;SDS011;13935;55.672;37.764;2023-03-23T02:35:37;7.72;;;4.28;;
26191;SDS011;13935;55.672;37.764;2023-03-23T02:38:18;8.63;;;4.43;;
26191;SDS011;13935;55.672;37.764;2023-03-23T02:46:11;9.45;;;4.72;;
26191;SDS011;13935;55.672;37.764;2023-03-23T02:51:47;8.00;;;4.53;;
26191;SDS011;13935;55.672;37.764;2023-03-23T02:53:58;7.45;;;4.45;;
26191;SDS011;13935;55.672;37.764;2023-03-23T03:04:37;8.48;;;4.63;;
26191;SDS011;13935;55.672;37.764;2023-03-23T03:09:14;9.13;;;4.53;;
26191;SDS011;13935;55.672;37.764;2023-03-23T03:14:19;8.27;;;4.85;;
26191;SDS011;13935;55.672;37.764;2023-03-23T03:20:25;10.65;;;4.93;;
26191;SDS011;13935;55.672;37.764;2023-03-23T03:26:16;7.63;;;4.53;;
26191;SDS011;13935;55.672;37.764;2023-03-23T03:29:03;8.80;;;4.68;;
26191;SDS011;13935;55.672;37.764;2023-03-23T03:33:52;9.30;;;4.75;;
26191;SDS011;13935;55.672;37.764;2023-03-23T03:35:36;10.23;;;5.03;;
26191;SDS011;13935;55.672;37.764;2023-03-23T03:40:34;9.93;;;5.22;;
26191;SDS011;13935;55.672;37.764;2023-03-23T03:42:47;10.77;;;5.70;;
26191;SDS011;13935;55.672;37.764;2023-03-23T03:47:14;9.70;;;5.80;;
26191;SDS011;13935;55.672;37.764;2023-03-23T03:50:42;10.23;;;5.68;;
26191;SDS011;13935;55.672;37.764;2023-03-23T03:54:34;9.80;;;5.82;;
26191;SDS011;13935;55.672;37.764;2023-03-23T03:56:02;9.20;;;5.60;;
26191;SDS011;13935;55.672;37.764;2023-03-23T04:01:23;14.23;;;6.05;;
26191;SDS011;13935;55.672;37.764;2023-03-23T04:03:33;12.05;;;6.97;;
26191;SDS011;13935;55.672;37.764;2023-03-23T04:05:29;14.13;;;6.40;;
26191;SDS011;13935;55.672;37.764;2023-03-23T04:16:28;13.70;;;6.95;;
26191;SDS011;13935;55.672;37.764;2023-03-23T04:21:50;12.63;;;7.10;;
26191;SDS011;13935;55.672;37.764;2023-03-23T04:23:01;15.57;;;8.25;;
26191;SDS011;13935;55.672;37.764;2023-03-23T04:24:07;12.95;;;7.35;;
26191;SDS011;13935;55.672;37.764;2023-03-23T04:25:12;13.35;;;7.55;;
26191;SDS011;13935;55.672;37.764;2023-03-23T04:26:22;13.57;;;7.68;;
26191;SDS011;13935;55.672;37.764;2023-03-23T04:27:29;13.88;;;8.00;;
26191;SDS011;13935;55.672;37.764;2023-03-23T04:28:36;12.93;;;8.05;;
26191;SDS011;13935;55.672;37.764;2023-03-23T04:30:05;13.57;;;7.60;;
26191;SDS011;13935;55.672;37.764;2023-03-23T04:31:22;15.13;;;8.63;;
26191;SDS011;13935;55.672;37.764;2023-03-23T04:32:30;14.68;;;7.70;;
26191;SDS011;13935;55.672;37.764;2023-03-23T04:33:34;18.70;;;8.65;;
26191;SDS011;13935;55.672;37.764;2023-03-23T04:34:37;13.75;;;8.13;;
26191;SDS011;13935;55.672;37.764;2023-03-23T04:35:43;13.77;;;7.88;;
26191;SDS011;13935;55.672;37.764;2023-03-23T04:36:58;17.42;;;8.27;;
26191;SDS011;13935;55.672;37.764;2023-03-23T04:38:03;13.73;;;7.63;;
26191;SDS011;13935;55.672;37.764;2023-03-23T04:39:15;13.27;;;8.25;;
26191;SDS011;13935;55.672;37.764;2023-03-23T04:40:18;17.10;;;11.23;;
26191;SDS011;13935;55.672;37.764;2023-03-23T04:41:31;15.10;;;10.60;;
26191;SDS011;13935;55.672;37.764;2023-03-23T04:43:00;15.32;;;8.00;;
26191;SDS011;13935;55.672;37.764;2023-03-23T04:45:13;16.25;;;8.20;;
26191;SDS011;13935;55.672;37.764;2023-03-23T04:46:41;14.55;;;7.60;;
26191;SDS011;13935;55.672;37.764;2023-03-23T04:47:58;11.25;;;7.10;;
26191;SDS011;13935;55.672;37.764;2023-03-23T04:49:35;13.48;;;7.30;;
26191;SDS011;13935;55.672;37.764;2023-03-23T04:50:53;10.82;;;6.93;;
26191;SDS011;13935;55.672;37.764;2023-03-23T04:52:11;16.92;;;7.95;;
26191;SDS011;13935;55.672;37.764;2023-03-23T04:53:30;12.63;;;8.23;;
26191;SDS011;13935;55.672;37.764;2023-03-23T04:54:39;15.18;;;8.02;;
26191;SDS011;13935;55.672;37.764;2023-03-23T04:56:09;12.45;;;7.53;;
26191;SDS011;13935;55.672;37.764;2023-03-23T04:58:09;12.95;;;8.05;;
26191;SDS011;13935;55.672;37.764;2023-03-23T04:59:39;12.50;;;7.72;;
26191;SDS011;13935;55.672;37.764;2023-03-23T05:01:00;12.07;;;7.97;;
26191;SDS011;13935;55.672;37.764;2023-03-23T05:02:46;13.07;;;7.88;;
26191;SDS011;13935;55.672;37.764;2023-03-23T05:04:04;12.63;;;8.13;;
26191;SDS011;13935;55.672;37.764;2023-03-23T05:05:11;11.63;;;7.60;;
26191;SDS011;13935;55.672;37.764;2023-03-23T05:06:18;12.38;;;7.82;;
26191;SDS011;13935;55.672;37.764;2023-03-23T05:07:38;11.52;;;8.38;;
26191;SDS011;13935;55.672;37.764;2023-03-23T05:09:15;11.52;;;7.60;;
26191;SDS011;13935;55.672;37.764;2023-03-23T05:10:23;11.23;;;7.22;;
26191;SDS011;13935;55.672;37.764;2023-03-23T05:11:49;11.30;;;7.88;;
26191;SDS011;13935;55.672;37.764;2023-03-23T05:12:53;13.98;;;8.05;;
26191;SDS011;13935;55.672;37.764;2023-03-23T05:14:07;11.77;;;7.68;;
26191;SDS011;13935;55.672;37.764;2023-03-23T05:15:13;11.65;;;7.72;;
26191;SDS011;13935;55.672;37.764;2023-03-23T05:16:31;10.50;;;7.57;;
26191;SDS011;13935;55.672;37.764;2023-03-23T05:17:37;15.07;;;8.02;;
26191;SDS011;13935;55.672;37.764;2023-03-23T05:18:46;10.00;;;7.38;;
26191;SDS011;13935;55.672;37.764;2023-03-23T05:19:51;15.77;;;7.80;;
26191;SDS011;13935;55.672;37.764;2023-03-23T05:21:08;9.43;;;7.25;;
26191;SDS011;13935;55.672;37.764;2023-03-23T05:22:15;11.77;;;7.95;;
26191;SDS011;13935;55.672;37.764;2023-03-23T05:23:22;11.45;;;7.68;;
26191;SDS011;13935;55.672;37.764;2023-03-23T05:24:30;12.32;;;7.72;;
26191;SDS011;13935;55.672;37.764;2023-03-23T05:25:37;11.10;;;7.47;;
26191;SDS011;13935;55.672;37.764;2023-03-23T05:26:49;11.15;;;7.70;;
26191;SDS011;13935;55.672;37.764;2023-03-23T05:27:57;13.23;;;8.05;;
26191;SDS011;13935;55.672;37.764;2023-03-23T05:29:31;11.52;;;8.40;;
26191;SDS011;13935;55.672;37.764;2023-03-23T05:30:35;12.27;;;8.18;;
26191;SDS011;13935;55.672;37.764;2023-03-23T05:31:36;11.52;;;8.18;;
26191;SDS011;13935;55.672;37.764;2023-03-23T05:32:37;12.90;;;8.07;;
26191;SDS011;13935;55.672;37.764;2023-03-23T05:33:54;11.25;;;8.80;;
26191;SDS011;13935;55.672;37.764;2023-03-23T05:35:02;12.48;;;9.23;;
26191;SDS011;13935;55.672;37.764;2023-03-23T05:36:05;14.13;;;9.30;;
26191;SDS011;13935;55.672;37.764;2023-03-23T05:37:25;13.18;;;9.13;;
26191;SDS011;13935;55.672;37.764;2023-03-23T05:38:33;11.77;;;8.35;;
26191;SDS011;13935;55.672;37.764;2023-03-23T05:39:35;13.55;;;8.20;;
26191;SDS011;13935;55.672;37.764;2023-03-23T05:40:59;12.80;;;8.70;;
26191;SDS011;13935;55.672;37.764;2023-03-23T05:42:07;12.13;;;9.23;;
26191;SDS011;13935;55.672;37.764;2023-03-23T05:43:25;12.45;;;8.55;;
26191;SDS011;13935;55.672;37.764;2023-03-23T05:44:45;15.75;;;8.57;;
26191;SDS011;13935;55.672;37.764;2023-03-23T05:45:46;12.32;;;8.68;;
26191;SDS011;13935;55.672;37.764;2023-03-23T05:46:47;14.32;;;8.95;;
26191;SDS011;13935;55.672;37.764;2023-03-23T05:47:49;13.95;;;8.93;;
26191;SDS011;13935;55.672;37.764;2023-03-23T05:48:53;16.80;;;9.75;;
26191;SDS011;13935;55.672;37.764;2023-03-23T05:49:58;16.35;;;9.35;;
26191;SDS011;13935;55.672;37.764;2023-03-23T05:51:01;15.23;;;9.27;;
26191;SDS011;13935;55.672;37.764;2023-03-23T05:52:04;12.23;;;8.90;;
26191;SDS011;13935;55.672;37.764;2023-03-23T05:53:06;14.18;;;9.27;;
26191;SDS011;13935;55.672;37.764;2023-03-23T05:54:10;15.25;;;9.55;;
26191;SDS011;13935;55.672;37.764;2023-03-23T05:55:12;14.02;;;9.10;;
26191;SDS011;13935;55.672;37.764;2023-03-23T05:56:17;16.10;;;9.68;;
26191;SDS011;13935;55.672;37.764;2023-03-23T06:00:16;15.13;;;10.23;;
26191;SDS011;13935;55.672;37.764;2023-03-23T06:01:38;15.18;;;9.60;;
26191;SDS011;13935;55.672;37.764;2023-03-23T06:03:05;14.88;;;9.80;;
26191;SDS011;13935;55.672;37.764;2023-03-23T06:04:28;15.15;;;9.90;;
26191;SDS011;13935;55.672;37.764;2023-03-23T06:05:51;15.43;;;9.50;;
26191;SDS011;13935;55.672;37.764;2023-03-23T06:07:01;16.60;;;9.25;;
26191;SDS011;13935;55.672;37.764;2023-03-23T06:08:03;13.77;;;9.23;;
26191;SDS011;13935;55.672;37.764;2023-03-23T06:09:07;16.25;;;9.68;;
26191;SDS011;13935;55.672;37.764;2023-03-23T06:10:32;15.55;;;9.98;;
26191;SDS011;13935;55.672;37.764;2023-03-23T06:11:49;16.23;;;10.10;;
26191;SDS011;13935;55.672;37.764;2023-03-23T06:13:17;17.05;;;9.57;;
26191;SDS011;13935;55.672;37.764;2023-03-23T06:14:24;15.35;;;9.05;;
26191;SDS011;13935;55.672;37.764;2023-03-23T06:15:37;14.88;;;9.32;;
26191;SDS011;13935;55.672;37.764;2023-03-23T06:16:39;13.02;;;9.00;;
26191;SDS011;13935;55.672;37.764;2023-03-23T06:17:48;14.00;;;9.32;;
26191;SDS011;13935;55.672;37.764;2023-03-23T06:18:54;14.07;;;8.88;;
26191;SDS011;13935;55.672;37.764;2023-03-23T06:20:04;15.93;;;9.57;;
26191;SDS011;13935;55.672;37.764;2023-03-23T06:21:12;13.50;;;9.73;;
26191;SDS011;13935;55.672;37.764;2023-03-23T06:22:33;14.00;;;8.63;;
26191;SDS011;13935;55.672;37.764;2023-03-23T06:23:40;12.50;;;9.30;;
26191;SDS011;13935;55.672;37.764;2023-03-23T06:24:43;13.10;;;9.10;;
26191;SDS011;13935;55.672;37.764;2023-03-23T06:25:46;15.15;;;9.05;;
26191;SDS011;13935;55.672;37.764;2023-03-23T06:26:47;13.52;;;9.80;;
26191;SDS011;13935;55.672;37.764;2023-03-23T06:27:52;14.38;;;9.27;;
26191;SDS011;13935;55.672;37.764;2023-03-23T06:28:53;14.15;;;9.93;;
26191;SDS011;13935;55.672;37.764;2023-03-23T06:29:55;13.27;;;9.63;;
26191;SDS011;13935;55.672;37.764;2023-03-23T06:31:01;12.55;;;9.18;;
26191;SDS011;13935;55.672;37.764;2023-03-23T06:32:05;15.65;;;9.02;;
26191;SDS011;13935;55.672;37.764;2023-03-23T06:33:07;11.60;;;8.85;;
26191;SDS011;13935;55.672;37.764;2023-03-23T06:34:30;13.60;;;9.65;;
26191;SDS011;13935;55.672;37.764;2023-03-23T06:35:51;15.55;;;9.50;;
26191;SDS011;13935;55.672;37.764;2023-03-23T06:37:08;12.57;;;9.82;;
26191;SDS011;13935;55.672;37.764;2023-03-23T06:38:20;17.25;;;9.43;;
26191;SDS011;13935;55.672;37.764;2023-03-23T06:39:25;12.50;;;9.60;;
26191;SDS011;13935;55.672;37.764;2023-03-23T06:40:38;17.63;;;10.40;;
26191;SDS011;13935;55.672;37.764;2023-03-23T06:41:40;14.30;;;9.55;;
26191;SDS011;13935;55.672;37.764;2023-03-23T06:42:41;15.23;;;9.65;;
26191;SDS011;13935;55.672;37.764;2023-03-23T06:44:01;18.10;;;10.32;;
26191;SDS011;13935;55.672;37.764;2023-03-23T06:45:05;14.88;;;10.35;;
26191;SDS011;13935;55.672;37.764;2023-03-23T06:46:06;16.77;;;9.18;;
26191;SDS011;13935;55.672;37.764;2023-03-23T06:47:13;15.23;;;9.73;;
26191;SDS011;13935;55.672;37.764;2023-03-23T06:48:19;14.60;;;9.18;;
26191;SDS011;13935;55.672;37.764;2023-03-23T06:49:20;16.52;;;9.57;;
26191;SDS011;13935;55.672;37.764;2023-03-23T06:50:28;16.05;;;9.60;;
26191;SDS011;13935;55.672;37.764;2023-03-23T06:51:29;12.00;;;9.43;;
26191;SDS011;13935;55.672;37.764;2023-03-23T06:52:30;20.58;;;9.57;;
26191;SDS011;13935;55.672;37.764;2023-03-23T06:53:32;15.75;;;9.75;;
26191;SDS011;13935;55.672;37.764;2023-03-23T06:54:34;15.00;;;9.18;;
26191;SDS011;13935;55.672;37.764;2023-03-23T06:55:37;12.57;;;9.13;;
26191;SDS011;13935;55.672;37.764;2023-03-23T06:56:38;12.98;;;9.45;;
26191;SDS011;13935;55.672;37.764;2023-03-23T06:57:39;13.98;;;9.68;;
26191;SDS011;13935;55.672;37.764;2023-03-23T06:58:41;15.73;;;9.57;;
26191;SDS011;13935;55.672;37.764;2023-03-23T06:59:46;13.82;;;9.70;;
26191;SDS011;13935;55.672;37.764;2023-03-23T07:00:47;15.95;;;9.23;;
26191;SDS011;13935;55.672;37.764;2023-03-23T07:01:50;14.15;;;9.57;;
26191;SDS011;13935;55.672;37.764;2023-03-23T07:02:51;14.38;;;9.55;;
26191;SDS011;13935;55.672;37.764;2023-03-23T07:03:53;14.95;;;8.80;;
26191;SDS011;13935;55.672;37.764;2023-03-23T07:05:02;13.63;;;9.32;;
26191;SDS011;13935;55.672;37.764;2023-03-23T07:06:04;16.10;;;10.35;;
26191;SDS011;13935;55.672;37.764;2023-03-23T07:07:10;14.20;;;9.35;;
26191;SDS011;13935;55.672;37.764;2023-03-23T07:08:22;14.98;;;9.60;;
26191;SDS011;13935;55.672;37.764;2023-03-23T07:09:25;14.23;;;9.27;;
26191;SDS011;13935;55.672;37.764;2023-03-23T07:10:26;19.98;;;9.13;;
26191;SDS011;13935;55.672;37.764;2023-03-23T07:11:28;17.05;;;9.18;;
26191;SDS011;13935;55.672;37.764;2023-03-23T07:12:31;14.43;;;8.93;;
26191;SDS011;13935;55.672;37.764;2023-03-23T07:13:33;17.63;;;9.68;;
26191;SDS011;13935;55.672;37.764;2023-03-23T07:14:35;16.73;;;10.00;;
26191;SDS011;13935;55.672;37.764;2023-03-23T07:15:37;11.98;;;8.80;;
26191;SDS011;13935;55.672;37.764;2023-03-23T07:16:39;13.50;;;8.65;;
26191;SDS011;13935;55.672;37.764;2023-03-23T07:17:40;15.10;;;9.25;;
26191;SDS011;13935;55.672;37.764;2023-03-23T07:18:53;15.50;;;9.48;;
26191;SDS011;13935;55.672;37.764;2023-03-23T07:19:54;20.80;;;9.98;;
26191;SDS011;13935;55.672;37.764;2023-03-23T07:20:56;14.02;;;9.52;;
26191;SDS011;13935;55.672;37.764;2023-03-23T07:22:03;19.77;;;9.90;;
26191;SDS011;13935;55.672;37.764;2023-03-23T07:23:05;17.05;;;9.30;;
26191;SDS011;13935;55.672;37.764;2023-03-23T07:24:15;12.40;;;9.32;;
26191;SDS011;13935;55.672;37.764;2023-03-23T07:25:39;16.05;;;9.93;;
26191;SDS011;13935;55.672;37.764;2023-03-23T07:26:41;12.43;;;9.30;;
26191;SDS011;13935;55.672;37.764;2023-03-23T07:27:43;14.40;;;9.45;;
26191;SDS011;13935;55.672;37.764;2023-03-23T07:28:46;14.10;;;9.60;;
26191;SDS011;13935;55.672;37.764;2023-03-23T07:30:16;14.18;;;9.00;;
26191;SDS011;13935;55.672;37.764;2023-03-23T07:31:17;12.68;;;8.90;;
26191;SDS011;13935;55.672;37.764;2023-03-23T07:32:17;13.18;;;9.23;;
26191;SDS011;13935;55.672;37.764;2023-03-23T07:33:19;13.10;;;9.35;;
26191;SDS011;13935;55.672;37.764;2023-03-23T07:34:20;24.52;;;10.15;;
26191;SDS011;13935;55.672;37.764;2023-03-23T07:35:36;13.07;;;9.45;;
26191;SDS011;13935;55.672;37.764;2023-03-23T07:36:43;14.43;;;8.82;;
26191;SDS011;13935;55.672;37.764;2023-03-23T07:37:45;13.05;;;9.05;;
26191;SDS011;13935;55.672;37.764;2023-03-23T07:38:50;13.65;;;8.90;;
26191;SDS011;13935;55.672;37.764;2023-03-23T07:39:51;11.75;;;8.38;;
26191;SDS011;13935;55.672;37.764;2023-03-23T07:40:52;14.45;;;9.07;;
26191;SDS011;13935;55.672;37.764;2023-03-23T07:41:54;15.48;;;8.90;;
26191;SDS011;13935;55.672;37.764;2023-03-23T07:43:08;11.30;;;8.55;;
26191;SDS011;13935;55.672;37.764;2023-03-23T07:44:27;11.25;;;8.85;;
26191;SDS011;13935;55.672;37.764;2023-03-23T07:45:30;12.43;;;8.90;;
26191;SDS011;13935;55.672;37.764;2023-03-23T07:46:33;15.85;;;8.95;;
26191;SDS011;13935;55.672;37.764;2023-03-23T07:47:52;10.98;;;8.70;;
26191;SDS011;13935;55.672;37.764;2023-03-23T07:48:53;13.80;;;9.32;;
26191;SDS011;13935;55.672;37.764;2023-03-23T07:49:58;14.13;;;8.90;;
26191;SDS011;13935;55.672;37.764;2023-03-23T07:51:07;15.32;;;11.38;;
26191;SDS011;13935;55.672;37.764;2023-03-23T07:52:09;13.23;;;8.75;;
26191;SDS011;13935;55.672;37.764;2023-03-23T07:53:11;11.65;;;9.35;;
26191;SDS011;13935;55.672;37.764;2023-03-23T07:54:14;14.77;;;8.70;;
26191;SDS011;13935;55.672;37.764;2023-03-23T07:55:42;13.13;;;8.90;;
26191;SDS011;13935;55.672;37.764;2023-03-23T07:57:03;13.57;;;9.02;;
26191;SDS011;13935;55.672;37.764;2023-03-23T07:58:09;14.68;;;9.05;;
26191;SDS011;13935;55.672;37.764;2023-03-23T07:59:10;12.50;;;8.35;;
26191;SDS011;13935;55.672;37.764;2023-03-23T08:00:14;14.02;;;8.45;;
26191;SDS011;13935;55.672;37.764;2023-03-23T08:01:19;13.93;;;8.18;;
26191;SDS011;13935;55.672;37.764;2023-03-23T08:02:39;11.25;;;8.80;;
26191;SDS011;13935;55.672;37.764;2023-03-23T08:04:05;10.13;;;7.75;;
26191;SDS011;13935;55.672;37.764;2023-03-23T08:05:20;13.80;;;8.75;;
26191;SDS011;13935;55.672;37.764;2023-03-23T08:06:42;19.15;;;9.38;;
26191;SDS011;13935;55.672;37.764;2023-03-23T08:08:01;16.17;;;8.93;;
26191;SDS011;13935;55.672;37.764;2023-03-23T08:09:24;16.33;;;10.25;;
26191;SDS011;13935;55.672;37.764;2023-03-23T08:10:48;12.35;;;8.23;;
26191;SDS011;13935;55.672;37.764;2023-03-23T08:12:11;12.50;;;7.85;;
26191;SDS011;13935;55.672;37.764;2023-03-23T08:13:41;15.48;;;8.57;;
26191;SDS011;13935;55.672;37.764;2023-03-23T08:15:01;11.80;;;8.80;;
26191;SDS011;13935;55.672;37.764;2023-03-23T08:18:19;13.02;;;9.10;;
26191;SDS011;13935;55.672;37.764;2023-03-23T08:19:42;12.63;;;8.60;;
26191;SDS011;13935;55.672;37.764;2023-03-23T08:21:02;14.85;;;9.20;;
26191;SDS011;13935;55.672;37.764;2023-03-23T08:22:30;15.07;;;8.65;;
26191;SDS011;13935;55.672;37.764;2023-03-23T08:23:52;12.70;;;8.57;;
26191;SDS011;13935;55.672;37.764;2023-03-23T08:25:22;14.15;;;9.15;;
26191;SDS011;13935;55.672;37.764;2023-03-23T08:26:42;10.75;;;8.38;;
26191;SDS011;13935;55.672;37.764;2023-03-23T08:28:02;12.30;;;8.68;;
26191;SDS011;13935;55.672;37.764;2023-03-23T08:29:36;13.27;;;9.13;;
26191;SDS011;13935;55.672;37.764;2023-03-23T08:31:07;14.90;;;8.80;;
26191;SDS011;13935;55.672;37.764;2023-03-23T08:32:30;15.23;;;9.35;;
26191;SDS011;13935;55.672;37.764;2023-03-23T08:34:01;11.57;;;9.07;;
26191;SDS011;13935;55.672;37.764;2023-03-23T08:35:23;15.65;;;9.10;;
26191;SDS011;13935;55.672;37.764;2023-03-23T08:36:54;13.38;;;8.73;;
26191;SDS011;13935;55.672;37.764;2023-03-23T08:38:27;14.85;;;9.32;;
26191;SDS011;13935;55.672;37.764;2023-03-23T08:39:53;13.18;;;8.10;;
26191;SDS011;13935;55.672;37.764;2023-03-23T08:41:15;12.73;;;8.27;;
26191;SDS011;13935;55.672;37.764;2023-03-23T08:42:45;11.00;;;8.43;;
26191;SDS011;13935;55.672;37.764;2023-03-23T08:44:06;12.38;;;8.40;;
26191;SDS011;13935;55.672;37.764;2023-03-23T08:45:22;19.23;;;9.40;;
26191;SDS011;13935;55.672;37.764;2023-03-23T08:46:48;14.23;;;8.98;;
26191;SDS011;13935;55.672;37.764;2023-03-23T08:48:16;14.02;;;9.02;;
26191;SDS011;13935;55.672;37.764;2023-03-23T08:49:37;12.05;;;8.55;;
26191;SDS011;13935;55.672;37.764;2023-03-23T08:51:09;11.93;;;8.65;;
26191;SDS011;13935;55.672;37.764;2023-03-23T08:52:19;15.20;;;9.48;;
26191;SDS011;13935;55.672;37.764;2023-03-23T08:53:31;14.90;;;9.88;;
26191;SDS011;13935;55.672;37.764;2023-03-23T08:54:53;12.25;;;8.45;;
26191;SDS011;13935;55.672;37.764;2023-03-23T08:56:10;11.90;;;8.77;;
26191;SDS011;13935;55.672;37.764;2023-03-23T08:57:36;12.23;;;9.43;;
26191;SDS011;13935;55.672;37.764;2023-03-23T08:58:57;14.00;;;8.93;;
26191;SDS011;13935;55.672;37.764;2023-03-23T09:00:24;15.95;;;9.10;;
26191;SDS011;13935;55.672;37.764;2023-03-23T09:01:37;11.98;;;8.88;;
26191;SDS011;13935;55.672;37.764;2023-03-23T09:02:53;12.25;;;7.90;;
26191;SDS011;13935;55.672;37.764;2023-03-23T09:03:56;11.95;;;8.27;;
26191;SDS011;13935;55.672;37.764;2023-03-23T09:05:16;12.63;;;8.68;;
26191;SDS011;13935;55.672;37.764;2023-03-23T09:06:57;12.27;;;8.98;;
26191;SDS011;13935;55.672;37.764;2023-03-23T09:07:58;12.32;;;8.68;;
26191;SDS011;13935;55.672;37.764;2023-03-23T09:08:59;14.23;;;8.73;;
26191;SDS011;13935;55.672;37.764;2023-03-23T09:10:01;16.65;;;9.00;;
26191;SDS011;13935;55.672;37.764;2023-03-23T09:11:03;19.85;;;9.20;;
26191;SDS011;13935;55.672;37.764;2023-03-23T09:12:06;12.80;;;9.40;;
26191;SDS011;13935;55.672;37.764;2023-03-23T09:13:08;15.18;;;8.75;;
26191;SDS011;13935;55.672;37.764;2023-03-23T09:14:10;12.90;;;8.35;;
26191;SDS011;13935;55.672;37.764;2023-03-23T09:15:12;13.70;;;8.68;;
26191;SDS011;13935;55.672;37.764;2023-03-23T09:16:16;11.63;;;7.97;;
26191;SDS011;13935;55.672;37.764;2023-03-23T09:17:17;11.00;;;8.18;;
26191;SDS011;13935;55.672;37.764;2023-03-23T09:18:18;12.60;;;8.55;;
26191;SDS011;13935;55.672;37.764;2023-03-23T09:19:19;12.13;;;8.18;;
26191;SDS011;13935;55.672;37.764;2023-03-23T09:20:23;12.32;;;8.52;;
26191;SDS011;13935;55.672;37.764;2023-03-23T09:21:25;12.98;;;8.68;;
26191;SDS011;13935;55.672;37.764;2023-03-23T09:22:27;12.68;;;9.00;;
26191;SDS011;13935;55.672;37.764;2023-03-23T09:23:28;17.27;;;8.40;;
26191;SDS011;13935;55.672;37.764;2023-03-23T09:24:30;16.17;;;8.50;;
26191;SDS011;13935;55.672;37.764;2023-03-23T09:25:31;15.82;;;9.45;;
26191;SDS011;13935;55.672;37.764;2023-03-23T09:26:32;14.55;;;8.98;;
26191;SDS011;13935;55.672;37.764;2023-03-23T09:27:33;18.52;;;8.93;;
26191;SDS011;13935;55.672;37.764;2023-03-23T09:28:34;12.30;;;8.63;;
26191;SDS011;13935;55.672;37.764;2023-03-23T09:29:35;14.05;;;8.70;;
26191;SDS011;13935;55.672;37.764;2023-03-23T09:30:37;12.75;;;8.55;;
26191;SDS011;13935;55.672;37.764;2023-03-23T09:31:39;12.70;;;8.88;;
26191;SDS011;13935;55.672;37.764;2023-03-23T09:32:42;13.20;;;8.48;;
26191;SDS011;13935;55.672;37.764;2023-03-23T09:33:45;14.93;;;8.20;;
26191;SDS011;13935;55.672;37.764;2023-03-23T09:34:47;13.32;;;8.80;;
26191;SDS011;13935;55.672;37.764;2023-03-23T09:35:47;11.30;;;8.55;;
26191;SDS011;13935;55.672;37.764;2023-03-23T09:36:48;16.08;;;8.77;;
26191;SDS011;13935;55.672;37.764;2023-03-23T09:37:50;14.27;;;9.27;;
26191;SDS011;13935;55.672;37.764;2023-03-23T09:38:52;10.70;;;8.20;;
26191;SDS011;13935;55.672;37.764;2023-03-23T09:39:53;11.25;;;8.60;;
26191;SDS011;13935;55.672;37.764;2023-03-23T09:42:28;13.25;;;8.20;;
26191;SDS011;13935;55.672;37.764;2023-03-23T09:49:55;14.80;;;8.68;;
26191;SDS011;13935;55.672;37.764;2023-03-23T09:53:19;17.50;;;9.93;;
26191;SDS011;13935;55.672;37.764;2023-03-23T09:54:50;24.65;;;9.98;;
26191;SDS011;13935;55.672;37.764;2023-03-23T09:56:24;19.98;;;9.52;;
26191;SDS011;13935;55.672;37.764;2023-03-23T10:01:55;14.45;;;9.40;;
26191;SDS011;13935;55.672;37.764;2023-03-23T10:03:27;14.57;;;8.93;;
26191;SDS011;13935;55.672;37.764;2023-03-23T10:05:36;24.27;;;10.93;;
26191;SDS011;13935;55.672;37.764;2023-03-23T10:07:08;12.73;;;8.65;;
26191;SDS011;13935;55.672;37.764;2023-03-23T10:08:36;13.13;;;9.38;;
26191;SDS011;13935;55.672;37.764;2023-03-23T10:10:18;14.77;;;9.20;;
26191;SDS011;13935;55.672;37.764;2023-03-23T10:13:54;13.07;;;7.88;;
26191;SDS011;13935;55.672;37.764;2023-03-23T10:16:10;10.90;;;7.78;;
26191;SDS011;13935;55.672;37.764;2023-03-23T10:27:44;13.90;;;7.78;;
26191;SDS011;13935;55.672;37.764;2023-03-23T10:29:42;15.88;;;8.35;;
26191;SDS011;13935;55.672;37.764;2023-03-23T10:32:11;14.93;;;8.57;;
26191;SDS011;13935;55.672;37.764;2023-03-23T10:33:41;12.30;;;8.07;;
26191;SDS011;13935;55.672;37.764;2023-03-23T10:35:09;18.08;;;8.55;;
26191;SDS011;13935;55.672;37.764;2023-03-23T10:38:39;14.70;;;8.73;;
26191;SDS011;13935;55.672;37.764;2023-03-23T10:40:31;13.60;;;8.38;;
26191;SDS011;13935;55.672;37.764;2023-03-23T10:41:50;11.32;;;7.45;;
26191;SDS011;13935;55.672;37.764;2023-03-23T10:45:14;10.38;;;7.57;;
26191;SDS011;13935;55.672;37.764;2023-03-23T10:46:59;16.83;;;8.25;;
26191;SDS011;13935;55.672;37.764;2023-03-23T10:48:28;12.32;;;7.85;;
26191;SDS011;13935;55.672;37.764;2023-03-23T10:49:40;11.10;;;7.43;;
26191;SDS011;13935;55.672;37.764;2023-03-23T10:50:48;9.85;;;7.03;;
26191;SDS011;13935;55.672;37.764;2023-03-23T10:53:26;11.88;;;7.90;;
26191;SDS011;13935;55.672;37.764;2023-03-23T10:54:46;12.50;;;7.30;;
26191;SDS011;13935;55.672;37.764;2023-03-23T10:55:51;12.02;;;7.80;;
26191;SDS011;13935;55.672;37.764;2023-03-23T10:56:53;12.13;;;7.20;;
26191;SDS011;13935;55.672;37.764;2023-03-23T10:58:02;12.73;;;7.53;;